createdAt,value
2018-01-10T00:01:42.783Z,22.15
2018-01-10T00:04:09.472Z,23.58
2018-01-10T00:06:36.056Z,24.10
2018-01-10T00:09:02.634Z,22.15
2018-01-10T00:11:29.240Z,20.17
2018-01-10T00:13:55.829Z,25.15
2018-01-10T00:16:22.411Z,25.60
2018-01-10T00:18:49.001Z,29.42
2018-01-10T00:21:15.587Z,29.12
2018-01-10T00:23:42.500Z,21.90
2018-01-10T00:26:09.079Z,22.98
2018-01-10T00:28:35.664Z,25.08
2018-01-10T00:31:02.263Z,23.87
2018-01-10T00:33:28.843Z,25.60
2018-01-10T00:35:55.428Z,28.02
2018-01-10T00:38:22.022Z,22.25
2018-01-10T00:40:48.615Z,26.00
2018-01-10T00:43:15.198Z,27.90
2018-01-10T00:45:41.815Z,25.70
2018-01-10T00:48:08.400Z,25.73
2018-01-10T00:50:34.991Z,23.33
2018-01-10T00:53:01.916Z,22.65
2018-01-10T00:55:28.498Z,28.52
2018-01-10T00:57:55.085Z,26.90
2018-01-10T01:00:21.927Z,25.37
2018-01-10T01:02:48.507Z,29.42
2018-01-10T01:05:15.099Z,27.70
2018-01-10T01:07:41.689Z,27.85
2018-01-10T01:10:08.277Z,25.90
2018-01-10T01:12:34.862Z,25.98
2018-01-10T01:15:01.743Z,23.73
2018-01-10T01:17:28.326Z,29.67
2018-01-10T01:19:54.919Z,26.37
2018-01-10T01:22:21.503Z,25.70
2018-01-10T01:24:48.108Z,28.73
2018-01-10T01:27:14.696Z,25.37
2018-01-10T01:29:41.271Z,25.70
2018-01-10T01:32:07.870Z,27.17
2018-01-10T01:34:34.451Z,26.70
2018-01-10T01:37:01.050Z,25.83
2018-01-10T01:39:27.641Z,32.28
2018-01-10T01:41:54.223Z,26.20
2018-01-10T01:44:20.806Z,24.58
2018-01-10T01:46:47.404Z,25.52
2018-01-10T01:49:14.353Z,24.90
2018-01-10T01:51:40.935Z,27.05
2018-01-10T01:54:07.515Z,27.05
2018-01-10T01:56:34.122Z,26.23
2018-01-10T01:59:00.706Z,27.48
2018-01-10T02:01:27.278Z,26.98
2018-01-10T02:03:54.055Z,29.10
2018-01-10T02:06:20.639Z,28.02
2018-01-10T02:08:47.206Z,25.05
2018-01-10T02:11:13.802Z,26.58
2018-01-10T02:13:40.382Z,27.60
2018-01-10T02:16:06.960Z,25.92
2018-01-10T02:18:33.554Z,26.92
2018-01-10T02:21:00.130Z,27.67
2018-01-10T02:23:26.702Z,24.58
2018-01-10T02:25:53.290Z,31.50
2018-01-10T02:28:19.863Z,30.75
2018-01-10T02:30:46.444Z,25.90
2018-01-10T02:33:13.383Z,24.45
2018-01-10T02:35:39.963Z,28.83
2018-01-10T02:38:06.543Z,27.00
2018-01-10T02:40:33.342Z,28.12
2018-01-10T02:42:59.918Z,29.83
2018-01-10T02:45:26.499Z,27.20
2018-01-10T02:47:53.109Z,29.75
2018-01-10T02:50:19.691Z,31.52
2018-01-10T02:52:46.270Z,28.27
2018-01-10T02:55:13.184Z,24.73
2018-01-10T02:57:39.763Z,29.33
2018-01-10T03:00:06.353Z,24.98
2018-01-10T03:02:33.274Z,27.48
2018-01-10T03:04:59.859Z,24.30
2018-01-10T03:07:26.435Z,28.62
2018-01-10T03:09:53.016Z,28.83
2018-01-10T03:12:19.604Z,28.23
2018-01-10T03:14:46.178Z,27.35
2018-01-10T03:17:13.024Z,29.52
2018-01-10T03:19:39.617Z,25.73
2018-01-10T03:22:06.195Z,26.92
2018-01-10T03:24:32.779Z,28.45
2018-01-10T03:26:59.572Z,31.15
2018-01-10T03:29:26.155Z,27.48
2018-01-10T03:31:52.731Z,24.10
2018-01-10T03:34:19.326Z,32.70
2018-01-10T03:36:45.898Z,30.17
2018-01-10T03:39:12.478Z,30.08
2018-01-10T03:41:39.078Z,27.08
2018-01-10T03:44:05.667Z,26.95
2018-01-10T03:46:32.246Z,28.35
2018-01-10T03:48:58.860Z,27.75
2018-01-10T03:51:25.435Z,29.10
2018-01-10T03:53:52.025Z,33.05
2018-01-10T03:56:18.628Z,29.08
2018-01-10T03:58:45.214Z,27.85
2018-01-10T04:01:11.795Z,28.12
2018-01-10T04:03:38.394Z,30.27
2018-01-10T04:06:04.981Z,31.40
2018-01-10T04:08:31.563Z,28.50
2018-01-10T04:10:58.154Z,28.00
2018-01-10T04:13:24.734Z,28.38
2018-01-10T04:15:51.315Z,26.73
2018-01-10T04:18:18.220Z,35.95
2018-01-10T04:20:44.800Z,33.60
2018-01-10T04:23:11.383Z,26.60
2018-01-10T04:25:38.219Z,29.27
2018-01-10T04:28:04.804Z,31.92
2018-01-10T04:30:31.396Z,32.00
2018-01-10T04:32:57.982Z,32.22
2018-01-10T04:35:24.571Z,36.45
2018-01-10T04:37:51.151Z,26.92
2018-01-10T04:40:17.755Z,31.30
2018-01-10T04:42:44.368Z,29.42
2018-01-10T04:45:10.943Z,32.95
2018-01-10T04:47:37.813Z,33.28
2018-01-10T04:50:04.403Z,28.95
2018-01-10T04:52:30.987Z,32.00
2018-01-10T04:54:57.591Z,33.38
2018-01-10T04:57:24.175Z,31.75
2018-01-10T04:59:50.767Z,41.83
2018-01-10T05:02:17.551Z,33.20
2018-01-10T05:04:44.130Z,28.65
2018-01-10T05:07:10.720Z,29.27
2018-01-10T05:09:37.315Z,34.40
2018-01-10T05:12:03.895Z,29.90
2018-01-10T05:14:30.509Z,29.67
2018-01-10T05:16:57.059Z,31.87
2018-01-10T05:19:23.652Z,32.25
2018-01-10T05:21:50.639Z,31.98
2018-01-10T05:24:17.252Z,33.08
2018-01-10T05:26:43.839Z,35.65
2018-01-10T05:29:10.435Z,32.83
2018-01-10T05:31:37.016Z,36.75
2018-01-10T05:34:03.607Z,31.98
2018-01-10T05:36:30.188Z,31.92
2018-01-10T05:38:56.783Z,38.55
2018-01-10T05:41:23.375Z,31.30
2018-01-10T05:43:49.966Z,36.50
2018-01-10T05:46:16.538Z,34.92
2018-01-10T05:48:43.138Z,34.47
2018-01-10T05:51:09.723Z,34.45
2018-01-10T05:53:36.302Z,37.33
2018-01-10T05:56:03.252Z,30.37
2018-01-10T05:58:29.835Z,34.55
2018-01-10T06:00:56.419Z,38.58
2018-01-10T06:03:23.052Z,30.92
2018-01-10T06:05:49.627Z,35.58
2018-01-10T06:08:16.208Z,40.35
2018-01-10T06:10:42.806Z,31.83
2018-01-10T06:13:09.387Z,29.05
2018-01-10T06:15:35.976Z,31.83
2018-01-10T06:18:02.756Z,37.35
2018-01-10T06:20:29.334Z,32.72
2018-01-10T06:22:55.916Z,33.45
2018-01-10T06:25:22.758Z,34.53
2018-01-10T06:27:49.339Z,37.35
2018-01-10T06:30:15.928Z,43.10
2018-01-10T06:32:42.640Z,34.85
2018-01-10T06:37:42.476Z,31.60
2018-01-10T06:40:09.055Z,34.90
2018-01-10T06:42:35.644Z,34.78
2018-01-10T06:45:02.236Z,41.63
2018-01-10T06:47:28.815Z,38.60
2018-01-10T06:49:55.405Z,35.03
2018-01-10T06:52:23.106Z,35.05
2018-01-10T06:54:49.697Z,34.78
2018-01-10T06:57:16.278Z,32.55
2018-01-10T06:59:43.738Z,41.63
2018-01-10T07:02:10.324Z,35.88
2018-01-10T07:04:36.903Z,38.75
2018-01-10T07:07:03.496Z,35.88
2018-01-10T07:09:30.079Z,43.53
2018-01-10T07:11:56.655Z,37.85
2018-01-10T07:14:23.251Z,32.10
2018-01-10T07:16:49.834Z,42.38
2018-01-10T07:19:16.734Z,39.63
2018-01-10T07:21:43.324Z,37.00
2018-01-10T07:24:09.906Z,42.72
2018-01-10T07:26:36.517Z,35.30
2018-01-10T07:29:03.107Z,36.75
2018-01-10T07:31:29.698Z,36.03
2018-01-10T07:33:56.643Z,37.00
2018-01-10T07:36:23.232Z,40.63
2018-01-10T07:38:49.820Z,36.20
2018-01-10T07:41:17.213Z,34.10
2018-01-10T07:43:43.792Z,40.53
2018-01-10T07:46:10.376Z,33.63
2018-01-10T07:48:36.961Z,41.85
2018-01-10T07:51:03.551Z,42.08
2018-01-10T07:58:34.702Z,34.58
2018-01-10T08:01:01.284Z,39.58
2018-01-10T08:03:27.888Z,37.75
2018-01-10T08:05:54.474Z,38.78
2018-01-10T08:08:21.051Z,37.50
2018-01-10T08:10:47.963Z,37.67
2018-01-10T08:13:14.550Z,35.92
2018-01-10T08:15:41.130Z,48.60
2018-01-10T08:20:40.923Z,42.15
2018-01-10T08:23:07.506Z,35.15
2018-01-10T08:25:34.099Z,115.20
2018-01-10T08:28:00.688Z,40.38
2018-01-10T08:30:27.281Z,37.90
2018-01-10T08:32:53.863Z,40.63
2018-01-10T08:35:20.446Z,32.47
2018-01-10T08:40:32.643Z,34.50
2018-01-10T08:42:59.250Z,35.73
2018-01-10T08:45:25.815Z,44.50
2018-01-10T08:47:52.394Z,33.70
2018-01-10T08:50:18.976Z,35.63
2018-01-10T08:55:29.639Z,35.50
2018-01-10T08:57:56.247Z,36.47
2018-01-10T09:00:23.976Z,37.20
2018-01-10T09:02:50.563Z,53.90
2018-01-10T09:05:17.139Z,44.37
2018-01-10T09:07:43.723Z,38.20
2018-01-10T09:10:10.643Z,40.35
2018-01-10T09:12:37.222Z,36.10
2018-01-10T09:15:03.811Z,37.80
2018-01-10T09:17:30.512Z,40.88
2018-01-10T09:19:57.095Z,38.30
2018-01-10T09:22:23.716Z,37.75
2018-01-10T09:24:50.318Z,39.50
2018-01-10T09:27:16.901Z,34.93
2018-01-10T09:29:43.485Z,38.03
2018-01-10T09:32:10.087Z,35.83
2018-01-10T09:34:36.659Z,36.37
2018-01-10T09:37:03.238Z,37.13
2018-01-10T09:39:30.077Z,33.73
2018-01-10T09:41:56.651Z,38.30
2018-01-10T09:44:23.232Z,35.80
2018-01-10T09:46:50.116Z,31.83
2018-01-10T09:49:16.698Z,36.70
2018-01-10T09:51:43.267Z,38.13
2018-01-10T09:54:09.858Z,33.60
2018-01-10T09:56:36.438Z,36.37
2018-01-10T09:59:03.012Z,35.90
2018-01-10T10:01:29.607Z,35.37
2018-01-10T10:03:56.184Z,37.37
2018-01-10T10:06:22.759Z,35.97
2018-01-10T10:08:49.347Z,37.93
2018-01-10T10:11:15.922Z,39.87
2018-01-10T10:13:42.507Z,42.63
2018-01-10T10:16:09.091Z,35.63
2018-01-10T10:18:35.667Z,40.30
2018-01-10T10:21:02.254Z,33.00
2018-01-10T10:23:28.831Z,38.97
2018-01-10T10:25:55.413Z,40.50
2018-01-10T10:28:21.990Z,36.43
2018-01-10T10:30:48.569Z,34.27
2018-01-10T10:33:15.257Z,35.33
2018-01-10T10:35:41.839Z,33.80
2018-01-10T10:38:08.418Z,34.00
2018-01-10T10:40:35.014Z,34.27
2018-01-10T10:43:01.587Z,29.63
2018-01-10T10:45:28.161Z,37.20
2018-01-10T10:47:54.759Z,36.50
2018-01-10T10:50:21.337Z,38.17
2018-01-10T10:52:47.911Z,39.93
2018-01-10T10:55:14.802Z,33.30
2018-01-10T10:57:41.376Z,34.80
2018-01-10T11:00:07.955Z,34.50
2018-01-10T11:02:34.638Z,37.20
2018-01-10T11:05:01.214Z,39.00
2018-01-10T11:07:27.796Z,29.77
2018-01-10T11:09:54.691Z,31.20
2018-01-10T11:12:21.262Z,40.23
2018-01-10T11:14:47.855Z,32.83
2018-01-10T11:17:14.783Z,37.33
2018-01-10T11:19:41.356Z,32.37
2018-01-10T11:22:07.944Z,36.60
2018-01-10T11:24:34.535Z,36.93
2018-01-10T11:27:01.119Z,32.30
2018-01-10T11:29:27.695Z,33.20
2018-01-10T11:31:54.277Z,34.80
2018-01-10T11:34:20.851Z,32.43
2018-01-10T11:36:47.531Z,34.97
2018-01-10T11:39:14.112Z,33.77
2018-01-10T11:41:40.687Z,28.60
2018-01-10T11:44:07.271Z,29.03
2018-01-10T11:46:33.851Z,29.53
2018-01-10T11:49:00.430Z,27.53
2018-01-10T11:51:27.026Z,30.53
2018-01-10T11:53:53.603Z,31.17
2018-01-10T11:56:20.170Z,31.63
2018-01-10T11:58:46.762Z,28.40
2018-01-10T12:01:13.342Z,29.40
2018-01-10T12:03:39.906Z,29.33
2018-01-10T12:06:06.491Z,27.37
2018-01-10T12:08:33.069Z,27.87
2018-01-10T12:10:59.643Z,31.93
2018-01-10T12:13:26.243Z,37.57
2018-01-10T12:15:52.828Z,29.40
2018-01-10T12:18:19.395Z,37.40
2018-01-10T12:20:45.983Z,31.63
2018-01-10T12:23:12.581Z,38.53
2018-01-10T12:25:39.153Z,47.93
2018-01-10T12:28:05.722Z,42.07
2018-01-10T12:30:32.419Z,43.40
2018-01-10T12:32:58.995Z,33.03
2018-01-10T12:35:25.567Z,35.23
2018-01-10T12:37:52.163Z,33.73
2018-01-10T12:40:18.736Z,34.63
2018-01-10T12:42:45.318Z,33.47
2018-01-10T12:45:11.917Z,78.43
2018-01-10T12:47:38.486Z,48.30
2018-01-10T12:50:05.058Z,29.70
2018-01-10T12:52:31.634Z,36.20
2018-01-10T12:54:58.212Z,51.93
2018-01-10T12:57:24.793Z,32.80
2018-01-10T12:59:51.368Z,37.93
2018-01-10T13:02:18.065Z,56.23
2018-01-10T13:04:44.620Z,35.47
2018-01-10T13:07:11.200Z,36.53
2018-01-10T13:09:37.794Z,33.30
2018-01-10T13:12:04.376Z,37.63
2018-01-10T13:14:30.942Z,31.23
2018-01-10T13:16:57.542Z,30.47
2018-01-10T13:19:24.114Z,36.20
2018-01-10T13:21:50.683Z,49.07
2018-01-10T13:24:17.506Z,36.13
2018-01-10T13:26:44.078Z,37.27
2018-01-10T13:29:10.650Z,34.30
2018-01-10T13:31:37.218Z,39.50
2018-01-10T13:34:03.808Z,37.53
2018-01-10T13:36:30.578Z,38.47
2018-01-10T13:38:57.150Z,40.53
2018-01-10T13:41:23.745Z,37.63
2018-01-10T13:43:50.587Z,35.37
2018-01-10T13:46:17.163Z,37.93
2018-01-10T13:48:43.738Z,36.40
2018-01-10T13:51:10.927Z,35.17
2018-01-10T13:53:37.507Z,39.10
2018-01-10T13:56:04.083Z,34.07
2018-01-10T13:58:30.910Z,38.03
2018-01-10T14:00:57.490Z,38.13
2018-01-10T14:03:24.055Z,39.87
2018-01-10T14:05:51.035Z,35.50
2018-01-10T14:08:17.611Z,37.93
2018-01-10T14:10:44.179Z,37.63
2018-01-10T14:13:10.863Z,36.50
2018-01-10T14:15:37.439Z,37.03
2018-01-10T14:18:04.015Z,39.67
2018-01-10T14:20:30.614Z,40.80
2018-01-10T14:22:57.187Z,37.80
2018-01-10T14:25:23.763Z,37.43
2018-01-10T14:27:50.652Z,43.37
2018-01-10T14:30:17.231Z,37.37
2018-01-10T14:32:43.803Z,37.70
2018-01-10T14:35:10.760Z,48.80
2018-01-10T14:37:37.327Z,37.07
2018-01-10T14:40:03.904Z,36.97
2018-01-10T14:42:30.503Z,40.17
2018-01-10T14:44:57.077Z,38.43
2018-01-10T14:47:23.660Z,39.97
2018-01-10T14:49:50.244Z,41.70
2018-01-10T14:52:16.823Z,41.33
2018-01-10T14:54:43.390Z,49.93
2018-01-10T14:57:09.988Z,58.17
2018-01-10T14:59:36.564Z,44.83
2018-01-10T15:02:03.134Z,43.77
2018-01-10T15:04:29.815Z,41.60
2018-01-10T15:06:56.452Z,45.87
2018-01-10T15:09:23.014Z,39.97
2018-01-10T15:11:49.623Z,41.00
2018-01-10T15:14:16.174Z,39.30
2018-01-10T15:16:42.749Z,39.83
2018-01-10T15:19:09.324Z,36.67
2018-01-10T15:21:35.915Z,36.73
2018-01-10T15:24:02.484Z,43.73
2018-01-10T15:26:29.060Z,36.30
2018-01-10T15:28:55.672Z,40.43
2018-01-10T15:31:22.230Z,35.43
2018-01-10T15:33:48.802Z,41.10
2018-01-10T15:41:20.079Z,37.17
2018-01-10T15:43:46.650Z,42.63
2018-01-10T15:46:13.231Z,37.40
2018-01-10T15:48:39.827Z,35.93
2018-01-10T15:51:06.403Z,36.70
2018-01-10T15:53:32.979Z,40.03
2018-01-10T15:55:59.576Z,37.40
2018-01-10T15:58:26.168Z,42.23
2018-01-10T16:00:52.734Z,36.43
2018-01-10T16:03:19.349Z,38.60
2018-01-10T16:05:46.115Z,41.13
2018-01-10T16:08:12.686Z,42.50
2018-01-10T16:10:39.263Z,39.77
2018-01-10T16:13:05.851Z,41.60
2018-01-10T16:15:32.428Z,41.50
2018-01-10T16:17:59.011Z,34.90
2018-01-10T16:20:25.615Z,41.30
2018-01-10T16:22:52.192Z,36.97
2018-01-10T16:25:19.100Z,36.00
2018-01-10T16:27:45.687Z,37.87
2018-01-10T16:30:12.267Z,40.67
2018-01-10T16:32:38.839Z,40.17
2018-01-10T16:35:19.783Z,39.10
2018-01-10T16:37:46.355Z,36.80
2018-01-10T16:40:12.935Z,41.80
2018-01-10T16:42:39.573Z,43.97
2018-01-10T16:45:06.100Z,43.50
2018-01-10T16:47:32.674Z,38.30
2018-01-10T16:49:59.275Z,38.10
2018-01-10T16:52:25.846Z,40.03
2018-01-10T16:54:52.429Z,37.60
2018-01-10T16:57:19.081Z,40.73
2018-01-10T16:59:45.895Z,41.00
2018-01-10T17:02:12.467Z,43.83
2018-01-10T17:04:39.048Z,41.87
2018-01-10T17:07:05.940Z,43.57
2018-01-10T17:09:32.520Z,48.97
2018-01-10T17:11:59.079Z,48.50
2018-01-10T17:14:25.671Z,41.03
2018-01-10T17:16:52.248Z,43.27
2018-01-10T17:19:18.839Z,37.30
2018-01-10T17:21:45.428Z,40.33
2018-01-10T17:24:12.001Z,41.13
2018-01-10T17:26:38.576Z,44.13
2018-01-10T17:29:05.143Z,41.97
2018-01-10T17:31:31.720Z,43.83
2018-01-10T17:33:58.312Z,40.90
2018-01-10T17:36:24.910Z,39.23
2018-01-10T17:38:51.490Z,38.90
2018-01-10T17:41:18.095Z,41.03
2018-01-10T17:43:44.712Z,41.83
2018-01-10T17:46:11.291Z,47.20
2018-01-10T17:48:37.899Z,46.83
2018-01-10T17:51:04.485Z,50.70
2018-01-10T17:53:31.053Z,44.77
2018-01-10T17:55:57.626Z,45.07
2018-01-10T17:58:24.212Z,40.20
2018-01-10T18:00:50.891Z,39.17
2018-01-10T18:03:17.464Z,40.07
2018-01-10T18:05:44.088Z,40.50
2018-01-10T18:08:10.666Z,47.50
2018-01-10T18:10:37.362Z,43.57
2018-01-10T18:13:03.936Z,40.77
2018-01-10T18:15:30.563Z,40.80
2018-01-10T18:17:57.142Z,39.90
2018-01-10T18:20:23.702Z,44.70
2018-01-10T18:22:50.322Z,41.83
2018-01-10T18:25:16.887Z,42.90
2018-01-10T18:27:43.455Z,45.83
2018-01-10T18:30:10.041Z,36.17
2018-01-10T18:32:36.610Z,42.77
2018-01-10T18:35:03.197Z,39.30
2018-01-10T18:37:29.768Z,38.80
2018-01-10T18:39:56.346Z,38.23
2018-01-10T18:42:22.951Z,39.23
2018-01-10T18:44:49.535Z,41.67
2018-01-10T18:47:16.108Z,36.87
2018-01-10T18:49:42.727Z,37.93
2018-01-10T18:52:09.292Z,41.17
2018-01-10T18:54:35.854Z,36.37
2018-01-10T18:57:02.439Z,41.40
2018-01-10T18:59:29.819Z,44.73
2018-01-10T19:01:56.394Z,43.93
2018-01-10T19:04:23.083Z,36.63
2018-01-10T19:06:49.664Z,43.50
2018-01-10T19:09:16.244Z,35.00
2018-01-10T19:11:42.835Z,35.83
2018-01-10T19:14:09.423Z,35.47
2018-01-10T19:16:36.002Z,37.67
2018-01-10T19:19:02.687Z,35.43
2018-01-10T19:21:29.306Z,42.20
2018-01-10T19:23:55.847Z,40.47
2018-01-10T19:26:22.544Z,34.60
2018-01-10T19:28:49.123Z,37.93
2018-01-10T19:31:15.699Z,37.43
2018-01-10T19:33:42.278Z,59.53
2018-01-10T19:36:08.895Z,52.50
2018-01-10T19:38:35.476Z,56.20
2018-01-10T19:41:02.066Z,49.80
2018-01-10T19:43:28.629Z,47.47
2018-01-10T19:45:55.219Z,41.23
2018-01-10T19:48:21.791Z,38.03
2018-01-10T19:50:48.373Z,41.43
2018-01-10T19:53:14.962Z,43.00
2018-01-10T19:55:41.548Z,39.20
2018-01-10T19:58:08.123Z,43.00
2018-01-10T20:00:34.732Z,40.57
2018-01-10T20:03:01.283Z,39.50
2018-01-10T20:05:27.885Z,41.60
2018-01-10T20:07:54.447Z,45.90
2018-01-10T20:10:21.031Z,42.07
2018-01-10T20:12:47.687Z,38.47
2018-01-10T20:15:14.234Z,45.40
2018-01-10T20:17:40.813Z,40.37
2018-01-10T20:20:07.419Z,42.37
2018-01-10T20:22:34.449Z,45.37
2018-01-10T20:25:01.013Z,40.20
2018-01-10T20:27:27.602Z,39.37
2018-01-10T20:29:54.267Z,44.10
2018-01-10T20:32:20.840Z,42.50
2018-01-10T20:34:47.635Z,38.10
2018-01-10T20:37:14.216Z,38.33
2018-01-10T20:39:40.795Z,55.40
2018-01-10T20:42:07.388Z,42.50
2018-01-10T20:44:33.979Z,40.37
2018-01-10T20:47:00.535Z,40.07
2018-01-10T20:49:27.142Z,43.40
2018-01-10T20:51:53.738Z,45.90
2018-01-10T20:54:20.323Z,39.03
2018-01-10T20:56:46.927Z,46.53
2018-01-10T20:59:13.499Z,42.23
2018-01-10T21:01:40.096Z,45.63
2018-01-10T21:04:06.707Z,43.47
2018-01-10T21:06:33.292Z,38.37
2018-01-10T21:08:59.877Z,46.73
2018-01-10T21:11:26.452Z,41.50
2018-01-10T21:13:53.023Z,47.80
2018-01-10T21:16:19.610Z,43.30
2018-01-10T21:18:46.223Z,60.63
2018-01-10T21:21:12.801Z,53.27
2018-01-10T21:23:39.372Z,41.33
2018-01-10T21:26:06.275Z,70.07
2018-01-10T21:28:32.850Z,54.37
2018-01-10T21:30:59.432Z,40.77
2018-01-10T21:33:26.210Z,40.23
2018-01-10T21:35:52.763Z,48.63
2018-01-10T21:38:19.340Z,44.53
2018-01-10T21:40:45.939Z,43.83
2018-01-10T21:43:12.528Z,42.30
2018-01-10T21:45:39.106Z,43.37
2018-01-10T21:48:05.757Z,43.43
2018-01-10T21:50:32.335Z,43.63
2018-01-10T21:52:58.916Z,49.07
2018-01-10T21:55:25.800Z,43.47
2018-01-10T21:57:52.370Z,45.07
2018-01-10T22:00:18.950Z,44.43
2018-01-10T22:02:45.540Z,39.03
2018-01-10T22:05:12.119Z,42.40
2018-01-10T22:07:38.690Z,45.83
2018-01-10T22:10:05.291Z,47.27
2018-01-10T22:12:31.866Z,40.97
2018-01-10T22:14:58.448Z,46.60
2018-01-10T22:17:25.035Z,44.63
2018-01-10T22:19:51.631Z,50.23
2018-01-10T22:22:18.219Z,53.97
2018-01-10T22:24:44.811Z,44.77
2018-01-10T22:27:11.408Z,44.90
2018-01-10T22:29:37.982Z,49.77
2018-01-10T22:32:04.832Z,49.53
2018-01-10T22:34:31.406Z,49.93
2018-01-10T22:36:58.087Z,45.77
2018-01-10T22:39:24.663Z,44.67
2018-01-10T22:42:05.744Z,47.50
2018-01-10T22:44:32.311Z,48.17
2018-01-10T22:46:58.894Z,47.53
2018-01-10T22:49:25.476Z,51.77
2018-01-10T22:51:52.083Z,57.20
2018-01-10T22:54:18.650Z,48.60
2018-01-10T22:56:45.244Z,46.88
2018-01-10T22:59:11.839Z,46.03
2018-01-10T23:01:38.423Z,50.30
2018-01-10T23:04:05.011Z,43.70
2018-01-10T23:06:32.062Z,45.70
2018-01-10T23:08:58.650Z,52.50
2018-01-10T23:11:25.241Z,47.75
2018-01-10T23:13:52.176Z,47.07
2018-01-10T23:16:18.746Z,44.97
2018-01-10T23:18:45.335Z,48.90
2018-01-10T23:21:11.914Z,48.13
2018-01-10T23:23:38.507Z,49.65
2018-01-10T23:26:05.097Z,49.85
2018-01-10T23:28:31.690Z,49.33
2018-01-10T23:30:58.262Z,42.57
2018-01-10T23:33:24.836Z,39.80
2018-01-10T23:35:51.444Z,42.80
2018-01-10T23:38:18.014Z,49.77
2018-01-10T23:40:44.595Z,46.13
2018-01-10T23:43:11.284Z,48.40
2018-01-10T23:45:37.855Z,46.00
2018-01-10T23:48:04.461Z,50.97
2018-01-10T23:50:31.027Z,52.80
2018-01-10T23:52:57.606Z,50.70
2018-01-10T23:55:24.182Z,48.97
2018-01-10T23:57:50.795Z,43.17
